createdAt,value
2023-07-01T00:00:05.930Z,17.878665058724838
2023-07-01T00:03:53.781Z,17.883579330956383
2023-07-01T00:07:31.145Z,17.857225251677846
2023-07-01T00:11:17.040Z,17.83930106963087
2023-07-01T00:14:57.315Z,17.796076709312068
2023-07-01T00:18:49.746Z,17.80467963506712
2023-07-01T00:23:01.871Z,17.75766830956377
2023-07-01T00:26:41.523Z,17.704618026426175
2023-07-01T00:30:17.672Z,17.682948825503352
2023-07-01T00:33:54.171Z,17.666789010067117
2023-07-01T00:37:36.068Z,17.653607382550334
2023-07-01T00:41:20.224Z,17.64012557676173
2023-07-01T00:44:57.274Z,17.66310428901006
2023-07-01T00:48:31.652Z,17.630076814177848
2023-07-01T00:52:06.553Z,17.598177957214766
2023-07-01T00:55:48.468Z,17.579151373741603
2023-07-01T00:59:19.548Z,17.55773385067114
2023-07-01T01:02:50.893Z,17.580209207214757
2023-07-01T01:06:21.052Z,17.581767774748318
2023-07-01T01:09:49.447Z,17.54615666946308
2023-07-01T01:16:05.291Z,17.537338768875845
2023-07-01T01:19:40.811Z,17.54608195260067
2023-07-01T01:23:16.568Z,17.52774355075503
2023-07-01T01:27:09.030Z,17.524433724832214
2023-07-01T01:30:44.889Z,17.517010539010062
2023-07-01T01:34:19.834Z,17.46507969798658
2023-07-01T01:37:54.242Z,17.45618839135908
2023-07-01T01:41:26.760Z,17.454618026426193
2023-07-01T01:45:01.475Z,17.413151478607396
2023-07-01T01:48:35.109Z,17.396511902265104
2023-07-01T01:52:10.097Z,17.415046927432904
2023-07-01T01:55:45.718Z,17.377986052852368
2023-07-01T01:59:57.815Z,17.3371670511745
2023-07-01T02:03:26.370Z,17.347602506291945
2023-07-01T02:07:08.736Z,17.324585780201353
2023-07-01T02:10:42.060Z,17.307753513003373
2023-07-01T02:14:19.129Z,17.258706480704692
2023-07-01T02:17:53.251Z,17.259534920302016
2023-07-01T02:21:46.155Z,17.246590551593954
2023-07-01T02:25:31.595Z,17.23585360738254
2023-07-01T02:29:01.560Z,17.2360646497483
2023-07-01T02:32:39.671Z,17.21355783347314
2023-07-01T02:39:06.066Z,17.192634490352333
2023-07-01T02:42:35.488Z,17.12787463296977
2023-07-01T02:47:07.039Z,17.183727453859046
2023-07-01T02:50:46.815Z,17.1518600566275
2023-07-01T02:54:23.785Z,17.143431470218115
2023-07-01T02:57:52.381Z,17.10695784395973
2023-07-01T03:01:34.708Z,17.088703334731523
2023-07-01T03:05:11.908Z,17.064124108640943
2023-07-01T03:08:47.119Z,17.02164822776846
2023-07-01T03:12:17.378Z,17.076230861996635
2023-07-01T03:15:46.131Z,17.034389419043627
2023-07-01T03:19:13.851Z,17.053046350671142
2023-07-01T03:22:46.301Z,17.030594588926167
2023-07-01T03:26:15.392Z,17.031466285654357
2023-07-01T03:30:13.794Z,17.062853921979872
2023-07-01T03:33:49.831Z,17.023054739932885
2023-07-01T03:37:21.101Z,17.03452181208054
2023-07-01T03:43:32.344Z,17.03196701971478
2023-07-01T03:47:08.737Z,17.036202286073834
2023-07-01T03:53:37.073Z,16.998902841862403
2023-07-01T03:57:04.529Z,16.987791002516772
2023-07-01T04:00:36.917Z,17.006256554110752
2023-07-01T04:04:06.398Z,17.009605704697993
2023-07-01T04:07:41.951Z,17.055404519714756
2023-07-01T04:12:06.028Z,16.9900639681208
2023-07-01T04:15:32.688Z,16.995633651426182
2023-07-01T04:19:04.752Z,16.963687604865775
2023-07-01T04:22:40.499Z,16.955316694630866
2023-07-01T04:26:15.547Z,16.972504194630876
2023-07-01T04:30:53.075Z,16.99528628355704
2023-07-01T04:34:27.777Z,16.9831126782718
2023-07-01T04:38:03.429Z,16.901359322567114
2023-07-01T04:41:38.720Z,16.79351405201342
2023-07-01T04:45:13.433Z,16.707550335570474
2023-07-01T04:49:25.536Z,16.707503145973153
2023-07-01T04:53:00.376Z,16.640299916107374
2023-07-01T04:56:35.019Z,16.5109270134228
2023-07-01T05:01:46.786Z,16.38287804110739
2023-07-01T05:05:21.932Z,16.35269636115773
2023-07-01T05:08:57.697Z,16.35158478397652
2023-07-01T05:12:33.501Z,16.312746434563763
2023-07-01T05:16:12.867Z,16.30468618917787
2023-07-01T05:19:47.318Z,16.29367397231545
2023-07-01T05:23:16.923Z,16.327153680788587
2023-07-01T05:35:05.851Z,16.370404257550344
2023-07-01T05:38:42.513Z,16.435161493288582
2023-07-01T05:42:17.852Z,16.45549234479866
2023-07-01T05:45:54.851Z,16.518550755033555
2023-07-01T05:49:31.748Z,16.63682492659396
2023-07-01T05:53:07.319Z,16.67933488884227
2023-07-01T05:56:41.236Z,16.72812762164429
2023-07-01T06:00:21.278Z,16.791079855285236
2023-07-01T06:03:56.281Z,16.814728397651006
2023-07-01T06:07:31.400Z,16.80911152474833
2023-07-01T06:11:09.082Z,16.836166893875852
2023-07-01T06:15:00.893Z,16.868907298657707
2023-07-01T06:19:30.655Z,16.946329697986574
2023-07-01T06:26:47.200Z,16.99360580956375
2023-07-01T06:30:38.191Z,17.024355075503344
2023-07-01T06:34:49.236Z,17.02358431208053
2023-07-01T06:39:00.855Z,17.034899328859062
2023-07-01T06:42:45.776Z,17.049912174916106
2023-07-01T06:47:01.517Z,17.009018456375845
2023-07-01T06:56:48.954Z,17.1222000838926
2023-07-01T07:00:35.037Z,17.153182676174488
2023-07-01T07:04:24.534Z,17.237578649328846
2023-07-01T07:08:07.766Z,17.308504614093977
2023-07-01T07:11:44.479Z,17.334856071728193
2023-07-01T07:15:19.908Z,17.30975907088926
2023-07-01T07:18:56.852Z,17.265676122063734
2023-07-01T07:22:32.530Z,17.025757655201353
2023-07-01T07:26:10.082Z,16.81141332843959
2023-07-01T07:29:46.181Z,16.696972000838933
2023-07-01T07:33:39.118Z,16.694223206795307
2023-07-01T07:37:23.997Z,16.79157796770135
2023-07-01T07:44:45.029Z,16.875574140100667
2023-07-01T07:48:16.614Z,16.866837510486572
2023-07-01T07:54:34.253Z,16.795468487835574
2023-07-01T07:59:09.428Z,16.772924968540266
2023-07-01T08:02:56.803Z,16.76840656459732
2023-07-01T08:06:42.971Z,16.79055028313757
2023-07-01T08:10:53.957Z,16.815183252936233
2023-07-01T08:14:45.638Z,16.78519819630874
2023-07-01T08:18:17.936Z,16.818854865771804
2023-07-01T08:25:14.935Z,16.735491820469797
2023-07-01T08:28:56.868Z,16.801848259228183
2023-07-01T08:32:36.020Z,16.833251625419454
2023-07-01T08:36:14.125Z,16.718864041526846
2023-07-01T08:39:54.027Z,16.614547504194626
2023-07-01T08:43:35.308Z,16.532112520973147
2023-07-01T08:52:24.501Z,16.719245490771808
2023-07-01T08:57:59.881Z,16.873172713926156
2023-07-01T09:02:35.883Z,16.84868000209732
2023-07-01T09:06:12.375Z,16.715976300335566
2023-07-01T09:09:54.569Z,16.594511587667782
2023-07-01T09:13:33.382Z,16.518258441694627
2023-07-01T09:17:12.386Z,16.513084626677852
2023-07-01T09:20:51.455Z,16.496230075503348
2023-07-01T09:24:30.889Z,16.544716075922818
2023-07-01T09:28:08.356Z,16.552466967281877
2023-07-01T09:31:46.519Z,16.571203859060393
2023-07-01T09:45:09.561Z,16.629490876677863
2023-07-01T09:48:46.972Z,16.631995857802014
2023-07-01T09:53:51.826Z,16.674205641778514
2023-07-01T09:57:32.987Z,16.613940593540256
2023-07-01T10:01:09.787Z,16.60490902894294
2023-07-01T10:04:46.297Z,16.566208315855697
2023-07-01T10:08:22.525Z,16.50742056417785
2023-07-01T10:11:59.549Z,16.521899905620803
2023-07-01T10:15:36.201Z,16.517698720637583
2023-07-01T10:19:12.453Z,16.47861655830537
2023-07-01T10:22:48.790Z,16.43040714135905
2023-07-01T10:26:24.706Z,16.431976195469804
2023-07-01T10:35:18.161Z,16.45029362416107
2023-07-01T10:38:54.634Z,16.45795669043624
2023-07-01T10:42:31.851Z,16.52629378145972
2023-07-01T10:46:07.496Z,16.51067664639261
2023-07-01T10:49:43.565Z,16.46870018875839
2023-07-01T10:53:18.964Z,16.52475356543624
2023-07-01T10:56:54.971Z,16.539930264261745
2023-07-01T11:00:31.144Z,16.56862678271812
2023-07-01T11:08:47.195Z,16.58293047399328
2023-07-01T11:12:22.789Z,16.64549077181206
2023-07-01T11:23:20.113Z,16.651077495805357
2023-07-01T11:26:56.474Z,16.7234453649329
2023-07-01T11:30:32.527Z,16.75203046350671
2023-07-01T11:34:07.690Z,16.75405961619127
2023-07-01T11:37:43.613Z,16.78138108221477
2023-07-01T11:41:19.098Z,16.791602873322145
2023-07-01T11:44:55.656Z,16.82367738045303
2023-07-01T11:48:32.288Z,16.8357395658557
2023-07-01T11:52:09.977Z,16.917289744127523
2023-07-01T11:56:40.876Z,16.96171875
2023-07-01T12:00:16.731Z,16.980601143036928
2023-07-01T12:03:52.842Z,16.977299182046984
2023-07-01T12:14:02.370Z,16.931496434563762
2023-07-01T12:17:41.750Z,16.983246382130872
2023-07-01T12:21:17.075Z,17.055888213087243
2023-07-01T12:25:25.231Z,17.164217177013402
2023-07-01T12:29:03.357Z,17.212524905620793
2023-07-01T12:32:38.867Z,17.26680473993289
2023-07-01T12:36:13.759Z,17.372059825922832
2023-07-01T12:43:09.348Z,17.25141044463086
2023-07-01T12:47:57.941Z,17.301106333892623
2023-07-01T12:52:21.705Z,17.469793414429525
2023-07-01T12:55:58.771Z,17.561008284395967
2023-07-01T12:59:34.798Z,17.55244861577182
2023-07-01T13:03:10.975Z,17.545039848993294
2023-07-01T13:06:47.085Z,17.519894347734894
2023-07-01T13:10:22.788Z,17.464467544043625
2023-07-01T13:13:58.647Z,17.46352899538593
2023-07-01T13:18:22.850Z,17.473897598573842
2023-07-01T13:22:16.667Z,17.536725304110732
2023-07-01T13:25:52.260Z,17.531491191275173
2023-07-01T13:29:28.274Z,17.489421665268466
2023-07-01T13:33:04.301Z,17.483093015939588
2023-07-01T13:36:39.870Z,17.49971948406042
2023-07-01T13:40:15.598Z,17.45460622902685
2023-07-01T13:43:51.773Z,17.49785942743289
2023-07-01T13:47:27.413Z,17.539745438338926
2023-07-01T13:51:03.419Z,17.56035942743289
2023-07-01T13:57:07.677Z,17.649794200922816
2023-07-01T14:01:12.960Z,17.697843697567123
2023-07-01T14:04:48.596Z,17.790229131711417
2023-07-01T14:08:23.045Z,17.760263737416118
2023-07-01T14:11:58.301Z,17.757069263842272
2023-07-01T14:15:33.636Z,17.72594248112417
2023-07-01T14:19:07.855Z,17.781044200922825
2023-07-01T14:22:42.486Z,17.835769714765092
2023-07-01T14:26:16.844Z,17.85320496015101
2023-07-01T14:29:52.998Z,17.89110476090605
2023-07-01T14:33:28.837Z,17.955797766359076
2023-07-01T14:37:05.395Z,17.977785497063763
2023-07-01T14:41:37.880Z,18.019047556627527
2023-07-01T14:45:11.305Z,18.052110423657712
2023-07-01T14:48:45.596Z,18.046635119546988
2023-07-01T14:54:58.250Z,18.100706533137586
2023-07-01T14:58:31.693Z,18.088624685402696
2023-07-01T15:02:05.046Z,18.036309773489936
2023-07-01T15:05:38.342Z,18.063772808305366
2023-07-01T15:09:17.280Z,18.068170616610747
2023-07-01T15:12:51.621Z,18.053530044043626
2023-07-01T15:16:26.468Z,18.04863150167785
2023-07-01T15:20:01.218Z,18.07842779991611
2023-07-01T15:34:49.611Z,17.833323720637583
2023-07-01T15:38:23.593Z,17.86871198615771
2023-07-01T15:44:38.900Z,18.04785811661074
2023-07-01T15:48:13.617Z,18.055328492030192
2023-07-01T15:51:49.519Z,18.013121329697988
2023-07-01T16:05:05.237Z,18.025153366191287
2023-07-01T16:08:41.235Z,18.027162856543637
2023-07-01T16:12:16.749Z,17.9982474307886
2023-07-01T16:15:52.601Z,18.001355390100677
2023-07-01T16:19:27.969Z,18.02590577810403
2023-07-01T16:24:42.604Z,18.000561031879215
2023-07-01T16:28:17.386Z,18.02628329488255
2023-07-01T16:31:53.709Z,18.075150744546992
2023-07-01T16:37:42.323Z,18.07741715604028
2023-07-01T16:44:28.940Z,18.149699821728184
2023-07-01T16:49:23.306Z,18.271720322986564
2023-07-01T16:54:13.500Z,18.267373636744942
2023-07-01T17:02:09.910Z,18.168823406040257
2023-07-01T17:06:57.525Z,18.126748636744946
2023-07-01T17:11:50.467Z,18.106531826761746
2023-07-01T17:18:39.763Z,18.166383966023478
2023-07-01T17:23:26.887Z,18.243335780201335
2023-07-01T17:28:11.730Z,18.30048500419462
2023-07-01T17:32:50.976Z,18.35208682885908
2023-07-01T17:37:44.677Z,18.54094877307046
2023-07-01T17:42:19.943Z,18.588724307885887
2023-07-01T17:47:03.026Z,18.532879351929537
2023-07-01T17:51:36.280Z,18.401000157298668
2023-07-01T17:56:13.494Z,18.287430526426157
2023-07-01T18:00:52.591Z,18.220134228187906
2023-07-01T18:07:54.958Z,18.12851824664431
2023-07-01T18:12:33.175Z,17.9668191589765
2023-07-01T18:16:53.746Z,17.916916159815443
2023-07-01T18:21:30.390Z,17.868237468540265
2023-07-01T18:25:49.419Z,17.839470165687924
2023-07-01T18:31:38.967Z,17.791310559983195
2023-07-01T18:36:39.672Z,17.739584207214772
2023-07-01T18:40:53.692Z,17.734920302013432
2023-07-01T18:45:00.501Z,17.73020658557047
2023-07-01T18:48:46.919Z,17.814630085989954
2023-07-01T18:53:06.601Z,17.655061084312084
2023-07-01T18:56:44.600Z,17.57264576342282
2023-07-01T19:00:21.153Z,17.50337405620806
2023-07-01T19:03:57.620Z,17.466108693372494
2023-07-01T19:07:34.069Z,17.339065121644314
2023-07-01T19:11:10.730Z,17.289185717281867
2023-07-01T19:24:12.318Z,17.18005190855703
2023-07-01T19:27:48.410Z,17.119896969379173
2023-07-01T19:31:24.019Z,16.98621670511745
2023-07-01T19:35:00.109Z,16.89138527684564
2023-07-01T19:38:36.950Z,16.862958787751687
2023-07-01T19:42:12.953Z,16.85110109060403
2023-07-01T19:46:32.145Z,16.90403471057047
2023-07-01T19:50:08.206Z,16.8809773489933
2023-07-01T19:53:56.006Z,16.87899276426174
2023-07-01T19:57:37.610Z,16.807643403942947
2023-07-01T20:01:14.603Z,16.686616505872475
2023-07-01T20:05:23.836Z,16.54660234899329
2023-07-01T20:08:59.879Z,16.542444421140935
2023-07-01T20:12:36.697Z,16.565451971476513
2023-07-01T20:16:11.961Z,16.525583315855698
2023-07-01T20:23:55.773Z,16.499676226929523
2023-07-01T20:28:40.969Z,16.43513265520136
2023-07-01T20:35:03.912Z,16.41301908557047
2023-07-01T20:38:39.823Z,16.371854026845647
2023-07-01T20:42:15.228Z,16.340126887583907
2023-07-01T20:45:50.748Z,16.33380348154364
2023-07-01T20:49:25.735Z,16.354998164849
2023-07-01T20:53:01.422Z,16.33076892827182
2023-07-01T21:00:08.912Z,16.345735895553695
2023-07-01T21:03:44.285Z,16.358511168204714
2023-07-01T21:07:19.412Z,16.32718251887585
2023-07-01T21:10:55.352Z,16.33871251048659
2023-07-01T21:15:22.751Z,16.320282351090626
2023-07-01T21:24:05.109Z,16.262472472734903
2023-07-01T21:27:41.042Z,16.260160182466443
2023-07-01T21:31:16.943Z,16.1870189282718
2023-07-01T21:34:53.628Z,16.153686031879182
2023-07-01T21:39:55.535Z,16.137863097734886
2023-07-01T21:44:11.804Z,16.06578492030201
2023-07-01T21:48:54.638Z,16.051021130453016
2023-07-01T21:54:00.554Z,16.01255112206375
2023-07-01T21:59:20.381Z,15.918139156879203
2023-07-01T22:03:05.551Z,15.9002529886745
2023-07-01T22:08:08.713Z,15.828027999161078
2023-07-01T22:11:47.767Z,15.817781302432879
2023-07-01T22:15:23.394Z,15.759734165268455
2023-07-01T22:19:18.122Z,15.718271549916102
2023-07-01T22:22:54.637Z,15.685250629194641
2023-07-01T22:27:51.011Z,15.644578439597314
2023-07-01T22:31:25.895Z,15.610723835989926
2023-07-01T22:35:01.446Z,15.559525744546981
2023-07-01T22:38:37.637Z,15.529161860318794
2023-07-01T22:42:13.298Z,15.530306208053698
2023-07-01T22:45:49.225Z,15.538227506291946
2023-07-01T22:49:24.410Z,15.477727820889255
2023-07-01T22:52:59.939Z,15.40111813129195
2023-07-01T22:58:52.335Z,15.380679792365767
2023-07-01T23:03:14.957Z,15.341112625838926
2023-07-01T23:07:31.928Z,15.3409055159396
2023-07-01T23:11:07.905Z,15.391007760067122
2023-07-01T23:14:46.853Z,15.455009962248326
2023-07-01T23:18:22.796Z,15.476026373741615
2023-07-01T23:21:59.154Z,15.473896287751682
2023-07-01T23:25:34.755Z,15.505830536912756
2023-07-01T23:29:10.160Z,15.522949874161071
2023-07-01T23:34:20.836Z,15.539312867030203
2023-07-01T23:37:57.135Z,15.514130662751684
2023-07-01T23:42:45.276Z,15.515510958473154
2023-07-01T23:46:20.003Z,15.56133074664431
2023-07-01T23:49:56.011Z,15.527550859899332
2023-07-01T23:55:41.295Z,15.562515729865792
2023-07-01T23:59:15.650Z,15.529818582214759
